createdAt,value
2022-08-09T00:01:19.332Z,9.05
2022-08-09T00:04:03.731Z,6.05
2022-08-09T00:06:38.370Z,8.10
2022-08-09T00:09:12.771Z,9.00
2022-08-09T00:12:02.839Z,8.20
2022-08-09T00:14:38.362Z,6.28
2022-08-09T00:17:07.319Z,6.75
2022-08-09T00:19:36.102Z,7.13
2022-08-09T00:22:04.525Z,8.38
2022-08-09T00:24:32.776Z,8.93
2022-08-09T00:27:01.513Z,8.13
2022-08-09T00:30:16.481Z,8.30
2022-08-09T00:32:26.892Z,10.80
2022-08-09T00:34:56.821Z,10.73
2022-08-09T00:37:26.929Z,7.43
2022-08-09T00:40:12.001Z,8.98
2022-08-09T00:44:19.481Z,7.93
2022-08-09T00:45:34.813Z,6.07
2022-08-09T00:48:04.324Z,7.65
2022-08-09T00:50:34.068Z,8.50
2022-08-09T00:53:10.097Z,9.68
2022-08-09T00:56:05.779Z,13.07
2022-08-09T00:58:27.694Z,8.35
2022-08-09T01:00:58.923Z,6.75
2022-08-09T01:04:14.423Z,7.22
2022-08-09T01:07:03.633Z,5.97
2022-08-09T01:09:54.032Z,7.35
2022-08-09T01:13:03.253Z,6.10
2022-08-09T01:15:40.969Z,9.75
2022-08-09T01:18:30.339Z,12.07
2022-08-09T01:21:50.980Z,8.23
2022-08-09T01:24:40.211Z,8.65
2022-08-09T01:27:14.891Z,6.65
2022-08-09T01:29:55.751Z,9.23
2022-08-09T01:32:33.683Z,9.90
2022-08-09T01:35:28.573Z,8.65
2022-08-09T01:38:08.105Z,8.68
2022-08-09T01:40:53.053Z,7.78
2022-08-09T01:43:42.114Z,8.68
2022-08-09T01:46:26.873Z,10.15
2022-08-09T01:49:09.591Z,9.60
2022-08-09T01:51:44.350Z,10.18
2022-08-09T01:54:23.549Z,9.43
2022-08-09T01:56:52.693Z,9.65
2022-08-09T01:59:23.278Z,6.38
2022-08-09T02:01:59.960Z,8.63
2022-08-09T02:04:31.208Z,7.35
2022-08-09T02:07:18.371Z,9.45
2022-08-09T02:10:04.097Z,12.32
2022-08-09T02:12:35.566Z,8.68
2022-08-09T02:15:07.615Z,8.68
2022-08-09T02:18:09.944Z,8.27
2022-08-09T02:20:32.803Z,9.73
2022-08-09T02:23:17.931Z,9.70
2022-08-09T02:25:55.597Z,9.30
2022-08-09T02:28:39.043Z,8.23
2022-08-09T02:31:19.622Z,8.60
2022-08-09T02:34:07.354Z,7.53
2022-08-09T02:36:43.519Z,6.45
2022-08-09T02:39:19.787Z,9.32
2022-08-09T02:41:54.468Z,8.23
2022-08-09T02:44:29.404Z,8.68
2022-08-09T02:47:07.059Z,7.35
2022-08-09T02:49:43.344Z,10.35
2022-08-09T02:52:17.023Z,8.35
2022-08-09T02:54:54.719Z,7.85
2022-08-09T02:57:26.875Z,11.43
2022-08-09T03:00:21.035Z,7.32
2022-08-09T03:03:00.257Z,7.60
2022-08-09T03:05:34.429Z,9.88
2022-08-09T03:08:04.711Z,7.18
2022-08-09T03:10:35.532Z,8.77
2022-08-09T03:16:04.142Z,10.15
2022-08-09T03:18:31.071Z,7.72
2022-08-09T03:21:00.551Z,7.05
2022-08-09T03:23:29.327Z,7.78
2022-08-09T03:26:03.175Z,8.52
2022-08-09T03:28:33.986Z,9.23
2022-08-09T03:31:04.326Z,11.07
2022-08-09T03:33:54.915Z,6.68
2022-08-09T03:36:27.805Z,6.40
2022-08-09T03:38:56.897Z,8.45
2022-08-09T03:41:29.834Z,8.45
2022-08-09T03:44:13.001Z,9.13
2022-08-09T03:46:44.293Z,5.75
2022-08-09T03:49:17.373Z,9.52
2022-08-09T03:51:55.889Z,7.07
2022-08-09T03:54:31.332Z,6.13
2022-08-09T03:57:04.547Z,7.75
2022-08-09T03:59:53.339Z,8.57
2022-08-09T04:02:28.286Z,8.25
2022-08-09T04:04:58.892Z,12.68
2022-08-09T04:07:47.071Z,8.60
2022-08-09T04:10:20.992Z,6.65
2022-08-09T04:13:00.673Z,8.88
2022-08-09T04:15:42.678Z,10.45
2022-08-09T04:18:19.220Z,8.38
2022-08-09T04:20:48.127Z,6.55
2022-08-09T04:23:17.518Z,6.88
2022-08-09T04:25:51.689Z,11.32
2022-08-09T04:28:36.010Z,8.25
2022-08-09T04:31:09.148Z,7.28
2022-08-09T04:33:47.299Z,7.72
2022-08-09T04:36:26.233Z,8.70
2022-08-09T04:38:55.537Z,8.77
2022-08-09T04:41:24.494Z,9.80
2022-08-09T04:44:05.767Z,7.43
2022-08-09T04:46:59.350Z,10.52
2022-08-09T04:49:53.381Z,9.03
2022-08-09T04:52:27.887Z,11.57
2022-08-09T04:54:57.552Z,11.32
2022-08-09T04:57:26.922Z,6.15
2022-08-09T05:00:16.837Z,8.32
2022-08-09T05:02:48.545Z,7.93
2022-08-09T05:05:32.353Z,7.30
2022-08-09T05:08:08.180Z,7.65
2022-08-09T05:10:37.024Z,8.07
2022-08-09T05:13:05.071Z,8.32
2022-08-09T05:15:42.671Z,8.18
2022-08-09T05:18:39.146Z,10.38
2022-08-09T05:20:58.494Z,10.00
2022-08-09T05:23:53.557Z,9.98
2022-08-09T05:26:16.038Z,8.70
2022-08-09T05:28:54.389Z,9.48
2022-08-09T05:31:44.268Z,9.50
2022-08-09T05:34:16.827Z,10.00
2022-08-09T05:36:47.277Z,11.27
2022-08-09T05:39:28.194Z,12.05
2022-08-09T05:42:01.609Z,8.98
2022-08-09T05:44:34.877Z,16.58
2022-08-09T05:47:05.488Z,10.40
2022-08-09T05:50:24.378Z,9.40
2022-08-09T05:52:24.736Z,12.75
2022-08-09T05:54:52.592Z,10.68
2022-08-09T05:57:20.208Z,10.38
2022-08-09T05:59:52.900Z,14.48
2022-08-09T06:02:20.952Z,13.10
2022-08-09T06:04:49.664Z,14.80
2022-08-09T06:07:21.436Z,17.67
2022-08-09T06:10:01.710Z,19.23
2022-08-09T06:12:31.404Z,16.30
2022-08-09T06:15:01.505Z,17.60
2022-08-09T06:17:39.092Z,20.50
2022-08-09T06:20:08.755Z,20.40
2022-08-09T06:22:36.823Z,35.42
2022-08-09T06:25:08.767Z,23.33
2022-08-09T06:27:42.161Z,26.13
2022-08-09T06:30:13.970Z,25.33
2022-08-09T06:33:01.000Z,23.52
2022-08-09T06:35:55.976Z,25.92
2022-08-09T06:38:17.939Z,24.45
2022-08-09T06:40:46.873Z,22.25
2022-08-09T06:43:14.556Z,23.25
2022-08-09T06:46:07.169Z,25.83
2022-08-09T06:48:30.882Z,21.33
2022-08-09T06:51:00.217Z,22.85
2022-08-09T06:53:38.568Z,22.77
2022-08-09T06:56:09.264Z,26.20
2022-08-09T07:00:46.968Z,22.05
2022-08-09T07:01:27.415Z,22.13
2022-08-09T07:04:04.146Z,20.90
2022-08-09T07:06:32.100Z,21.83
2022-08-09T07:09:02.179Z,24.75
2022-08-09T07:11:45.377Z,30.35
2022-08-09T07:14:17.984Z,21.10
2022-08-09T07:19:26.527Z,29.17
2022-08-09T07:21:57.803Z,30.67
2022-08-09T07:24:32.110Z,29.70
2022-08-09T07:27:10.869Z,26.10
2022-08-09T07:29:57.146Z,25.85
2022-08-09T07:32:33.375Z,26.83
2022-08-09T07:35:08.106Z,25.95
2022-08-09T07:37:46.192Z,23.42
2022-08-09T07:40:20.102Z,31.67
2022-08-09T07:42:52.511Z,29.58
2022-08-09T07:45:38.073Z,28.77
2022-08-09T07:48:28.898Z,26.15
2022-08-09T07:51:09.271Z,24.58
2022-08-09T07:54:05.290Z,24.85
2022-08-09T07:56:44.702Z,21.67
2022-08-09T07:59:25.667Z,19.02
2022-08-09T08:02:09.141Z,15.95
2022-08-09T08:04:37.789Z,21.27
2022-08-09T08:07:09.475Z,17.60
2022-08-09T08:09:54.907Z,20.35
2022-08-09T08:12:33.622Z,18.55
2022-08-09T08:15:01.255Z,17.63
2022-08-09T08:17:52.966Z,18.40
2022-08-09T08:20:16.565Z,13.15
2022-08-09T08:22:48.557Z,18.48
2022-08-09T08:25:16.586Z,15.35
2022-08-09T08:27:49.812Z,13.63
2022-08-09T08:30:20.465Z,13.55
2022-08-09T08:32:53.797Z,14.43
2022-08-09T08:35:22.813Z,16.00
2022-08-09T08:37:59.634Z,14.27
2022-08-09T08:40:33.649Z,12.57
2022-08-09T08:43:13.486Z,13.75
2022-08-09T08:45:53.609Z,14.13
2022-08-09T08:48:34.385Z,11.57
2022-08-09T08:53:36.786Z,10.15
2022-08-09T08:56:07.005Z,14.95
2022-08-09T08:58:36.234Z,13.65
2022-08-09T09:01:09.023Z,10.65
2022-08-09T09:03:50.520Z,8.88
2022-08-09T09:06:19.333Z,10.70
2022-08-09T09:08:52.535Z,8.45
2022-08-09T09:11:20.755Z,11.02
2022-08-09T09:13:56.328Z,8.00
2022-08-09T09:16:33.753Z,8.88
2022-08-09T09:21:59.548Z,5.43
2022-08-09T09:24:35.164Z,6.07
2022-08-09T09:27:07.358Z,8.93
2022-08-09T09:30:13.966Z,6.75
2022-08-09T09:32:34.861Z,14.63
2022-08-09T09:35:10.303Z,9.38
2022-08-09T09:37:40.479Z,8.93
2022-08-09T09:40:11.850Z,6.72
2022-08-09T09:42:46.301Z,9.13
2022-08-09T09:45:26.155Z,5.85
2022-08-09T09:47:59.078Z,7.35
2022-08-09T09:50:49.355Z,5.22
2022-08-09T09:53:44.025Z,7.35
2022-08-09T09:56:20.172Z,5.57
2022-08-09T09:58:58.356Z,5.68
2022-08-09T10:01:31.460Z,6.45
2022-08-09T10:04:22.789Z,8.37
2022-08-09T10:06:58.796Z,9.50
2022-08-09T10:09:49.067Z,6.00
2022-08-09T10:12:31.654Z,10.23
2022-08-09T10:15:50.670Z,7.30
2022-08-09T10:18:11.811Z,6.28
2022-08-09T10:20:44.735Z,8.65
2022-08-09T10:23:22.188Z,6.05
2022-08-09T10:26:06.375Z,5.03
2022-08-09T10:28:38.417Z,7.10
2022-08-09T10:32:27.686Z,5.43
2022-08-09T10:34:08.977Z,6.30
2022-08-09T10:36:43.522Z,5.88
2022-08-09T10:39:13.928Z,3.70
2022-08-09T10:41:44.494Z,4.05
2022-08-09T10:44:12.568Z,7.57
2022-08-09T10:47:00.925Z,5.18
2022-08-09T10:49:51.818Z,5.95
2022-08-09T10:52:44.787Z,5.00
2022-08-09T10:57:55.998Z,7.20
2022-08-09T11:01:10.988Z,5.03
2022-08-09T11:03:51.001Z,3.58
2022-08-09T11:06:24.203Z,6.50
2022-08-09T11:08:53.378Z,4.22
2022-08-09T11:11:23.261Z,4.93
2022-08-09T11:14:28.902Z,12.13
2022-08-09T11:16:59.723Z,3.30
2022-08-09T11:20:22.840Z,2.83
2022-08-09T11:22:56.660Z,6.00
2022-08-09T11:25:36.211Z,5.65
2022-08-09T11:28:56.119Z,3.65
2022-08-09T11:31:43.533Z,5.03
2022-08-09T11:34:33.433Z,4.03
2022-08-09T11:37:07.606Z,6.93
2022-08-09T11:40:05.872Z,4.57
2022-08-09T11:42:50.041Z,3.35
2022-08-09T11:45:43.211Z,6.50
2022-08-09T11:48:28.147Z,6.53
2022-08-09T11:51:19.542Z,3.53
2022-08-09T11:53:58.485Z,7.90
2022-08-09T11:56:39.638Z,2.75
2022-08-09T11:59:33.018Z,6.30
2022-08-09T12:02:34.869Z,5.65
2022-08-09T12:04:58.850Z,5.72
2022-08-09T12:07:34.384Z,3.05
2022-08-09T12:10:14.407Z,5.10
2022-08-09T12:13:03.750Z,6.43
2022-08-09T12:15:52.013Z,4.10
2022-08-09T12:18:29.708Z,5.00
2022-08-09T12:21:02.774Z,4.47
2022-08-09T12:23:57.852Z,2.83
2022-08-09T12:26:26.185Z,5.80
2022-08-09T12:29:13.970Z,5.97
2022-08-09T12:31:58.943Z,5.05
2022-08-09T12:34:34.604Z,4.03
2022-08-09T12:37:21.733Z,4.30
2022-08-09T12:40:06.015Z,4.80
2022-08-09T12:42:34.733Z,5.85
2022-08-09T12:45:32.712Z,7.38
2022-08-09T12:47:53.072Z,8.45
2022-08-09T12:50:23.660Z,5.68
2022-08-09T12:53:17.670Z,2.65
2022-08-09T12:56:15.778Z,4.43
2022-08-09T12:58:28.701Z,4.22
2022-08-09T13:00:57.575Z,6.55
2022-08-09T13:03:57.155Z,5.43
2022-08-09T13:06:34.429Z,8.40
2022-08-09T13:09:06.102Z,5.23
2022-08-09T13:11:39.346Z,5.93
2022-08-09T13:14:42.610Z,5.70
2022-08-09T13:17:08.653Z,4.07
2022-08-09T13:20:08.864Z,7.03
2022-08-09T13:22:37.692Z,3.33
2022-08-09T13:25:14.187Z,4.18
2022-08-09T13:27:48.363Z,4.78
2022-08-09T13:30:49.226Z,6.15
2022-08-09T13:33:22.685Z,5.73
2022-08-09T13:36:38.128Z,5.60
2022-08-09T13:38:57.625Z,7.45
2022-08-09T13:41:59.139Z,7.00
2022-08-09T13:44:16.787Z,3.80
2022-08-09T13:47:26.787Z,5.05
2022-08-09T13:49:56.499Z,5.47
2022-08-09T13:52:25.777Z,6.45
2022-08-09T13:54:59.974Z,4.80
2022-08-09T13:57:35.896Z,8.15
2022-08-09T14:00:19.178Z,3.28
2022-08-09T14:05:57.444Z,3.95
2022-08-09T14:08:26.902Z,8.50
2022-08-09T14:10:56.437Z,7.40
2022-08-09T14:14:14.769Z,3.75
2022-08-09T14:16:15.996Z,6.03
2022-08-09T14:18:50.098Z,10.52
2022-08-09T14:21:20.707Z,5.10
2022-08-09T14:23:55.580Z,6.30
2022-08-09T14:26:32.845Z,4.50
2022-08-09T14:29:07.941Z,6.20
2022-08-09T14:31:54.501Z,3.05
2022-08-09T14:34:31.400Z,4.40
2022-08-09T14:37:06.618Z,3.58
2022-08-09T14:39:46.467Z,5.85
2022-08-09T14:42:30.275Z,6.47
2022-08-09T14:46:55.763Z,6.10
2022-08-09T14:48:05.898Z,3.47
2022-08-09T14:50:37.050Z,11.60
2022-08-09T14:53:12.029Z,4.18
2022-08-09T14:55:49.851Z,4.20
2022-08-09T14:58:19.576Z,6.18
2022-08-09T15:00:48.157Z,6.77
2022-08-09T15:03:20.089Z,4.97
2022-08-09T15:05:52.376Z,7.80
2022-08-09T15:08:26.298Z,5.50
2022-08-09T15:11:00.329Z,4.75
2022-08-09T15:13:56.225Z,4.68
2022-08-09T15:16:18.625Z,8.82
2022-08-09T15:18:49.099Z,6.18
2022-08-09T15:22:01.454Z,7.20
2022-08-09T15:24:12.900Z,4.55
2022-08-09T15:26:46.379Z,4.28
2022-08-09T15:30:58.790Z,4.40
2022-08-09T15:32:03.255Z,8.00
2022-08-09T15:34:34.626Z,4.20
2022-08-09T15:37:24.217Z,5.57
2022-08-09T15:40:05.419Z,5.20
2022-08-09T15:42:40.852Z,6.15
2022-08-09T15:45:12.502Z,5.53
2022-08-09T15:47:51.565Z,5.10
2022-08-09T15:50:20.726Z,5.93
2022-08-09T15:53:07.094Z,4.45
2022-08-09T15:56:04.603Z,4.47
2022-08-09T15:58:31.692Z,5.32
2022-08-09T16:01:00.563Z,7.17
2022-08-09T16:03:38.223Z,3.50
2022-08-09T16:06:29.531Z,3.17
2022-08-09T16:09:01.266Z,7.70
2022-08-09T16:11:33.079Z,6.93
2022-08-09T16:14:07.087Z,4.68
2022-08-09T16:16:41.923Z,3.10
2022-08-09T16:19:16.571Z,5.43
2022-08-09T16:21:51.724Z,3.28
2022-08-09T16:24:33.051Z,4.28
2022-08-09T16:27:05.055Z,5.88
2022-08-09T16:29:36.875Z,2.92
2022-08-09T16:32:18.961Z,3.80
2022-08-09T16:34:57.682Z,5.10
2022-08-09T16:37:53.588Z,4.20
2022-08-09T16:40:20.398Z,4.68
2022-08-09T16:42:48.907Z,3.95
2022-08-09T16:45:19.764Z,2.75
2022-08-09T16:48:38.947Z,7.55
2022-08-09T16:50:38.608Z,5.55
2022-08-09T16:53:06.616Z,4.07
2022-08-09T16:58:24.624Z,4.03
2022-08-09T17:00:53.799Z,4.63
2022-08-09T17:03:23.866Z,3.80
2022-08-09T17:06:09.328Z,5.50
2022-08-09T17:09:01.559Z,4.18
2022-08-09T17:11:33.089Z,3.78
2022-08-09T17:14:26.404Z,5.50
2022-08-09T17:16:59.962Z,4.90
2022-08-09T17:19:47.423Z,7.03
2022-08-09T17:22:25.099Z,8.57
2022-08-09T17:25:04.820Z,6.82
2022-08-09T17:27:49.204Z,6.17
2022-08-09T17:30:28.325Z,3.65
2022-08-09T17:33:05.000Z,4.25
2022-08-09T17:35:35.850Z,6.28
2022-08-09T17:38:13.745Z,5.05
2022-08-09T17:40:51.917Z,10.52
2022-08-09T17:43:34.753Z,6.78
2022-08-09T17:46:08.917Z,5.18
2022-08-09T17:48:40.578Z,6.70
2022-08-09T17:51:21.596Z,4.43
2022-08-09T17:53:55.267Z,4.10
2022-08-09T17:56:32.404Z,3.90
2022-08-09T17:59:11.571Z,4.15
2022-08-09T18:02:07.536Z,4.57
2022-08-09T18:04:28.772Z,4.05
2022-08-09T18:06:57.431Z,8.27
2022-08-09T18:09:40.737Z,6.07
2022-08-09T18:12:17.186Z,5.47
2022-08-09T18:14:54.130Z,12.48
2022-08-09T18:18:01.929Z,6.50
2022-08-09T18:20:56.771Z,5.50
2022-08-09T18:23:07.452Z,4.55
2022-08-09T18:25:50.181Z,5.40
2022-08-09T18:30:42.990Z,7.05
2022-08-09T18:31:15.229Z,4.90
2022-08-09T18:33:53.682Z,5.53
2022-08-09T18:36:25.863Z,5.55
2022-08-09T18:39:02.807Z,4.95
2022-08-09T18:41:34.392Z,8.88
2022-08-09T18:44:10.599Z,3.50
2022-08-09T18:46:49.399Z,3.97
2022-08-09T18:49:31.966Z,3.38
2022-08-09T18:52:00.001Z,4.40
2022-08-09T18:54:28.551Z,3.83
2022-08-09T18:57:05.536Z,5.88
2022-08-09T18:59:37.254Z,5.25
2022-08-09T19:02:11.396Z,4.90
2022-08-09T19:04:47.310Z,4.18
2022-08-09T19:07:16.243Z,4.70
2022-08-09T19:10:16.571Z,4.85
2022-08-09T19:12:36.552Z,5.97
2022-08-09T19:15:07.145Z,4.55
2022-08-09T19:17:54.905Z,3.95
2022-08-09T19:20:26.698Z,6.85
2022-08-09T19:23:02.516Z,5.25
2022-08-09T19:26:00.893Z,5.78
2022-08-09T19:28:20.965Z,2.90
2022-08-09T19:30:48.583Z,6.65
2022-08-09T19:33:20.289Z,3.50
2022-08-09T19:35:58.203Z,5.53
2022-08-09T19:38:27.769Z,6.55
2022-08-09T19:40:59.712Z,3.47
2022-08-09T19:44:01.815Z,8.63
2022-08-09T19:46:34.271Z,7.65
2022-08-09T19:50:07.640Z,8.07
2022-08-09T19:51:55.692Z,5.43
2022-08-09T19:54:25.036Z,7.05
2022-08-09T19:56:53.985Z,7.47
2022-08-09T19:59:57.677Z,5.38
2022-08-09T20:04:12.277Z,6.03
2022-08-09T20:05:02.015Z,3.00
2022-08-09T20:07:58.934Z,6.43
2022-08-09T20:10:34.007Z,7.22
2022-08-09T20:13:04.129Z,6.80
2022-08-09T20:16:37.682Z,4.72
2022-08-09T20:18:22.118Z,4.38
2022-08-09T20:20:55.278Z,6.47
2022-08-09T20:23:24.059Z,8.88
2022-08-09T20:26:06.974Z,7.65
2022-08-09T20:28:47.590Z,6.85
2022-08-09T20:31:17.357Z,9.00
2022-08-09T20:33:46.851Z,8.27
2022-08-09T20:36:20.420Z,5.75
2022-08-09T20:41:37.714Z,7.30
2022-08-09T20:44:10.566Z,8.93
2022-08-09T20:46:42.815Z,7.28
2022-08-09T20:49:13.839Z,6.15
2022-08-09T20:54:18.500Z,9.07
2022-08-09T20:56:49.868Z,12.25
2022-08-09T20:59:25.129Z,10.88
2022-08-09T21:02:17.613Z,6.38
2022-08-09T21:05:50.982Z,6.68
2022-08-09T21:07:40.701Z,9.48
2022-08-09T21:10:12.190Z,5.30
2022-08-09T21:12:39.890Z,8.30
2022-08-09T21:15:12.580Z,7.22
2022-08-09T21:18:21.318Z,8.43
2022-08-09T21:20:30.675Z,12.68
2022-08-09T21:23:00.454Z,8.40
2022-08-09T21:25:56.229Z,9.02
2022-08-09T21:28:35.212Z,6.88
2022-08-09T21:31:17.343Z,6.07
2022-08-09T21:33:52.536Z,5.80
2022-08-09T21:36:23.842Z,9.75
2022-08-09T21:38:57.769Z,9.88
2022-08-09T21:42:04.477Z,7.63
2022-08-09T21:44:34.601Z,13.05
2022-08-09T21:47:04.900Z,10.27
2022-08-09T21:49:39.475Z,9.00
2022-08-09T21:52:14.724Z,7.78
2022-08-09T21:55:03.948Z,6.03
2022-08-09T21:57:58.817Z,9.43
2022-08-09T22:00:32.122Z,7.70
2022-08-09T22:03:04.706Z,8.85
2022-08-09T22:05:36.964Z,10.52
2022-08-09T22:08:13.095Z,4.90
2022-08-09T22:11:00.526Z,8.50
2022-08-09T22:13:35.764Z,9.15
2022-08-09T22:16:07.919Z,8.43
2022-08-09T22:18:38.395Z,6.85
2022-08-09T22:21:21.972Z,11.05
2022-08-09T22:23:58.626Z,9.38
2022-08-09T22:26:34.719Z,7.15
2022-08-09T22:29:09.136Z,8.40
2022-08-09T22:31:50.662Z,6.38
2022-08-09T22:34:28.561Z,10.10
2022-08-09T22:36:58.189Z,7.45
2022-08-09T22:39:56.306Z,9.40
2022-08-09T22:42:22.486Z,10.37
2022-08-09T22:45:00.346Z,7.90
2022-08-09T22:48:11.988Z,8.25
2022-08-09T22:50:32.068Z,7.22
2022-08-09T22:53:03.741Z,6.18
2022-08-09T22:56:06.384Z,8.75
2022-08-09T22:58:32.438Z,9.18
2022-08-09T23:01:05.383Z,7.97
2022-08-09T23:04:04.815Z,28.35
2022-08-09T23:06:29.966Z,25.25
2022-08-09T23:09:07.275Z,15.13
2022-08-09T23:11:35.146Z,11.35
2022-08-09T23:14:03.629Z,11.13
2022-08-09T23:16:31.872Z,12.10
2022-08-09T23:19:00.114Z,7.47
2022-08-09T23:21:33.623Z,14.88
2022-08-09T23:24:06.078Z,14.70
2022-08-09T23:29:05.540Z,13.13
2022-08-09T23:31:33.450Z,11.30
2022-08-09T23:34:03.690Z,12.88
2022-08-09T23:36:32.920Z,11.85
2022-08-09T23:39:01.126Z,6.85
2022-08-09T23:41:29.851Z,8.57
2022-08-09T23:43:59.730Z,7.38
2022-08-09T23:46:28.934Z,12.15
2022-08-09T23:48:57.663Z,7.57
2022-08-09T23:51:26.714Z,7.32
2022-08-09T23:54:02.034Z,5.70
2022-08-09T23:56:52.353Z,8.02
2022-08-09T23:59:21.535Z,9.52
